Classifiche di sempre
Migliori tempi personali validi di atleta tra tutti gli eventi e le stagioni. Ogni atleta compare una sola volta per divisione.
Cerca per nome e apri la pagina in cui è classificato questo record di divisione.
105,335 atleti in classifica
| Pos. | Pos. AG | Atleta | Nazionalità | Categoria età | TempoMiglior tempo | Distacco |
|---|---|---|---|---|---|---|
| 104651 | #13691 | Meliza SandovalUSA · W 40-44 · AG #13691 | USA | W 40-44 | 2:54:22 | +134:46 |
| 104652 | #14562 | Otilia ChioaruROU · W 16-24 · AG #14562 | ROU | W 16-24 | 2:54:22 | +134:46 |
| 104653 | #3959 | Leticia Calderon DiazMEX · W 50-54 · AG #3959 | MEX | W 50-54 | 2:54:22 | +134:46 |
| 104654 | #19221 | Candice BreslerRSA · W 35-39 · AG #19221 | RSA | W 35-39 | 2:54:24 | +134:48 |
| 104655 | #13692 | Sowmya Reddy MandaIND · W 40-44 · AG #13692 | IND | W 40-44 | 2:54:25 | +134:49 |
| 104656 | #24666 | Shona SmithGBR · W 30-34 · AG #24666 | GBR | W 30-34 | 2:54:26 | +134:50 |
| 104657 | #24667 | Amnani ZulkipliBRU · W 30-34 · AG #24667 | BRU | W 30-34 | 2:54:28 | +134:52 |
| 104658 | #19222 | 瑄廷 徐CHN · W 35-39 · AG #19222 | CHN | W 35-39 | 2:54:32 | +134:56 |
| 104659 | #19223 | Caitlin JohnstonGBR · W 35-39 · AG #19223 | GBR | W 35-39 | 2:54:33 | +134:57 |
| 104660 | #129 | Jackline ChanCAN · W 65-69 · AG #129 | CAN | W 65-69 | 2:54:34 | +134:58 |
| 104661 | #19224 | Kaula MphaphuliRSA · W 35-39 · AG #19224 | RSA | W 35-39 | 2:54:39 | +135:03 |
| 104662 | #14563 | Lisa ReinstadlerITA · W 16-24 · AG #14563 | ITA | W 16-24 | 2:54:42 | +135:06 |
| 104663 | #13693 | Shruti PanditIND · W 40-44 · AG #13693 | IND | W 40-44 | 2:54:42 | +135:06 |
| 104664 | #13694 | Duangnate JongpaisalsilTHA · W 40-44 · AG #13694 | THA | W 40-44 | 2:54:43 | +135:07 |
| 104665 | #24668 | 琦雪 高CHN · W 30-34 · AG #24668 | CHN | W 30-34 | 2:54:47 | +135:11 |
| 104666 | #13695 | Dulce IradaNZL · W 40-44 · AG #13695 | NZL | W 40-44 | 2:54:49 | +135:13 |
| 104667 | #24721 | Alyssa GuajardoUSA · W 25-29 · AG #24721 | USA | W 25-29 | 2:54:49 | +135:13 |
| 104668 | #13696 | Anja StutzGER · W 40-44 · AG #13696 | GER | W 40-44 | 2:54:49 | +135:13 |
| 104669 | #13697 | Nora SalinasMEX · W 40-44 · AG #13697 | MEX | W 40-44 | 2:54:57 | +135:21 |
| 104670 | #7852 | Maria JonesGBR · W 45-49 · AG #7852 | GBR | W 45-49 | 2:54:58 | +135:22 |
| 104671 | #24722 | Tumanako Mason-TihiNZL · W 25-29 · AG #24722 | NZL | W 25-29 | 2:54:58 | +135:22 |
| 104672 | #7853 | Sarah HaysUSA · W 45-49 · AG #7853 | USA | W 45-49 | 2:55:00 | +135:24 |
| 104673 | #14565 | Emily BassGBR · W 16-24 · AG #14565 | GBR | W 16-24 | 2:55:02 | +135:26 |
| 104674 | #7854 | Kartika Aryani NasirSIN · W 45-49 · AG #7854 | SIN | W 45-49 | 2:55:02 | +135:26 |
| 104675 | #14566 | Vanessa ReidUSA · W 16-24 · AG #14566 | USA | W 16-24 | 2:55:10 | +135:34 |
Pagina 4,187 di 4,214